Time,TemperatureF,DewpointF,PressureIn,WindDirection,WindDirectionDegrees,WindSpeedMPH,WindSpeedGustMPH,Humidity,HourlyPrecipIn,Conditions,Clouds,dailyrainin,SolarRadiationWatts/m^2,SoftwareType,DateUTC
2013-06-11 00:00:00,62.0,61.0,-100.00,West,270,0.0,-999.0,94,-99.99,,,-99.99,0.000000,,2013-06-11 04:00:00,
2013-06-11 00:34:00,62.0,61.0,-100.00,West,270,0.0,-999.0,94,-99.99,,,-99.99,0.000000,,2013-06-11 04:34:00,
2013-06-11 00:43:00,62.0,61.0,-100.00,West,270,0.0,-999.0,94,-99.99,,,-99.99,0.000000,,2013-06-11 04:43:00,
2013-06-11 00:53:00,62.0,61.0,-100.00,West,270,0.0,-999.0,94,-99.99,,,-99.99,0.000000,,2013-06-11 04:53:00,
2013-06-11 01:00:00,61.0,59.0,-100.00,WSW,247,0.0,-999.0,95,-99.99,,,-99.99,0.000000,,2013-06-11 05:00:00,
2013-06-11 01:32:00,61.0,59.0,-100.00,WSW,247,0.0,-999.0,95,-99.99,,,-99.99,0.000000,,2013-06-11 05:32:00,
2013-06-11 01:42:00,61.0,59.0,-100.00,WSW,247,0.0,-999.0,95,-99.99,,,-99.99,0.000000,,2013-06-11 05:42:00,
2013-06-11 01:52:00,61.0,59.0,-100.00,WSW,247,0.0,-999.0,95,-99.99,,,-99.99,0.000000,,2013-06-11 05:52:00,
2013-06-11 02:00:00,59.0,58.0,-100.00,SW,225,1.0,-999.0,96,-99.99,,,-99.99,0.000000,,2013-06-11 06:00:00,
2013-06-11 02:32:00,59.0,58.0,-100.00,SW,225,1.0,-999.0,96,-99.99,,,-99.99,0.000000,,2013-06-11 06:32:00,
2013-06-11 02:42:00,59.0,58.0,-100.00,SW,225,1.0,-999.0,96,-99.99,,,-99.99,0.000000,,2013-06-11 06:42:00,
2013-06-11 02:52:00,59.0,58.0,-100.00,SW,225,1.0,-999.0,96,-99.99,,,-99.99,0.000000,,2013-06-11 06:52:00,
2013-06-11 03:00:00,58.0,57.0,-100.00,SW,225,1.0,-999.0,96,-99.99,,,-99.99,0.000000,,2013-06-11 07:00:00,
2013-06-11 03:32:00,58.0,57.0,-100.00,SW,225,1.0,-999.0,96,-99.99,,,-99.99,0.000000,,2013-06-11 07:32:00,
2013-06-11 03:42:00,58.0,57.0,-100.00,SW,225,1.0,-999.0,96,-99.99,,,-99.99,0.000000,,2013-06-11 07:42:00,
2013-06-11 03:52:00,58.0,57.0,-100.00,SW,225,1.0,-999.0,96,-99.99,,,-99.99,0.000000,,2013-06-11 07:52:00,
2013-06-11 04:00:00,57.0,57.0,-100.00,SW,225,0.0,-999.0,96,-99.99,,,-99.99,0.000000,,2013-06-11 08:00:00,
2013-06-11 04:32:00,57.0,57.0,-100.00,SW,225,0.0,-999.0,96,-99.99,,,-99.99,0.000000,,2013-06-11 08:32:00,
2013-06-11 04:42:00,57.0,57.0,-100.00,SW,225,0.0,-999.0,96,-99.99,,,-99.99,0.000000,,2013-06-11 08:42:00,
2013-06-11 04:52:00,57.0,57.0,-100.00,SW,225,0.0,-999.0,96,-99.99,,,-99.99,0.000000,,2013-06-11 08:52:00,
2013-06-11 05:00:00,56.0,55.0,-100.00,SW,225,1.0,-999.0,97,-99.99,,,-99.99,0.000000,,2013-06-11 09:00:00,
2013-06-11 05:33:00,56.0,55.0,-100.00,SW,225,1.0,-999.0,97,-99.99,,,-99.99,0.000000,,2013-06-11 09:33:00,
2013-06-11 05:43:00,56.0,55.0,-100.00,SW,225,1.0,-999.0,97,-99.99,,,-99.99,0.000000,,2013-06-11 09:43:00,
2013-06-11 05:53:00,56.0,55.0,-100.00,SW,225,1.0,-999.0,97,-99.99,,,-99.99,0.000000,,2013-06-11 09:53:00,
2013-06-11 06:00:00,55.0,54.0,-100.00,SW,225,1.0,-999.0,97,-99.99,,,-99.99,0.000000,,2013-06-11 10:00:00,
2013-06-11 06:33:00,55.0,54.0,-100.00,SW,225,1.0,-999.0,97,-99.99,,,-99.99,0.000000,,2013-06-11 10:33:00,
2013-06-11 06:43:00,55.0,54.0,-100.00,SW,225,1.0,-999.0,97,-99.99,,,-99.99,0.000000,,2013-06-11 10:43:00,
2013-06-11 06:52:00,55.0,54.0,-100.00,SW,225,1.0,-999.0,97,-99.99,,,-99.99,0.000000,,2013-06-11 10:52:00,
2013-06-11 07:00:00,54.0,54.0,-100.00,SW,225,2.0,-999.0,97,-99.99,,,-99.99,15.080000,,2013-06-11 11:00:00,
2013-06-11 07:32:00,54.0,54.0,-100.00,SW,225,2.0,-999.0,97,-99.99,,,-99.99,15.080000,,2013-06-11 11:32:00,
2013-06-11 07:42:00,54.0,54.0,-100.00,SW,225,2.0,-999.0,97,-99.99,,,-99.99,15.080000,,2013-06-11 11:42:00,
2013-06-11 07:52:00,54.0,54.0,-100.00,SW,225,2.0,-999.0,97,-99.99,,,-99.99,15.080000,,2013-06-11 11:52:00,
2013-06-11 08:00:00,54.0,54.0,-100.00,SW,225,2.0,-999.0,97,-99.99,,,-99.99,59.160000,,2013-06-11 12:00:00,
2013-06-11 08:32:00,54.0,54.0,-100.00,SW,225,2.0,-999.0,97,-99.99,,,-99.99,59.160000,,2013-06-11 12:32:00,
2013-06-11 08:42:00,54.0,54.0,-100.00,SW,225,2.0,-999.0,97,-99.99,,,-99.99,59.160000,,2013-06-11 12:42:00,
2013-06-11 08:52:00,54.0,54.0,-100.00,SW,225,2.0,-999.0,97,-99.99,,,-99.99,59.160000,,2013-06-11 12:52:00,
2013-06-11 09:00:00,56.0,56.0,-100.00,WSW,247,2.0,-999.0,97,-99.99,,,-99.99,133.399994,,2013-06-11 13:00:00,
2013-06-11 09:32:00,56.0,56.0,-100.00,WSW,247,2.0,-999.0,97,-99.99,,,-99.99,133.399994,,2013-06-11 13:32:00,
2013-06-11 09:42:00,56.0,56.0,-100.00,WSW,247,2.0,-999.0,97,-99.99,,,-99.99,133.399994,,2013-06-11 13:42:00,
2013-06-11 09:52:00,56.0,56.0,-100.00,WSW,247,2.0,-999.0,97,-99.99,,,-99.99,133.399994,,2013-06-11 13:52:00,
2013-06-11 10:00:00,59.0,58.0,-100.00,SW,225,1.0,-999.0,97,-99.99,,,-99.99,230.839996,,2013-06-11 14:00:00,
2013-06-11 10:32:00,59.0,58.0,-100.00,SW,225,1.0,-999.0,97,-99.99,,,-99.99,230.839996,,2013-06-11 14:32:00,
2013-06-11 10:42:00,59.0,58.0,-100.00,SW,225,1.0,-999.0,97,-99.99,,,-99.99,230.839996,,2013-06-11 14:42:00,
2013-06-11 10:53:00,59.0,58.0,-100.00,SW,225,1.0,-999.0,97,-99.99,,,-99.99,230.839996,,2013-06-11 14:53:00,
2013-06-11 11:00:00,63.0,61.0,-100.00,SSW,202,1.0,-999.0,94,-99.99,,,-99.99,528.960022,,2013-06-11 15:00:00,
2013-06-11 11:33:00,63.0,61.0,-100.00,SSW,202,1.0,-999.0,94,-99.99,,,-99.99,528.960022,,2013-06-11 15:33:00,
2013-06-11 11:43:00,63.0,61.0,-100.00,SSW,202,1.0,-999.0,94,-99.99,,,-99.99,528.960022,,2013-06-11 15:43:00,
2013-06-11 11:53:00,63.0,61.0,-100.00,SSW,202,1.0,-999.0,94,-99.99,,,-99.99,528.960022,,2013-06-11 15:53:00,
2013-06-11 12:00:00,69.0,62.0,-100.00,South,180,2.0,-999.0,78,-99.99,,,-99.99,661.200012,,2013-06-11 16:00:00,
2013-06-11 12:33:00,69.0,62.0,-100.00,South,180,2.0,-999.0,78,-99.99,,,-99.99,661.200012,,2013-06-11 16:33:00,
2013-06-11 12:42:00,69.0,62.0,-100.00,South,180,2.0,-999.0,78,-99.99,,,-99.99,661.200012,,2013-06-11 16:42:00,
2013-06-11 12:53:00,69.0,62.0,-100.00,South,180,2.0,-999.0,78,-99.99,,,-99.99,661.200012,,2013-06-11 16:53:00,
2013-06-11 13:00:00,73.0,63.0,-100.00,South,180,2.0,-999.0,70,-99.99,,,-99.99,748.200012,,2013-06-11 17:00:00,
2013-06-11 13:32:00,73.0,63.0,-100.00,South,180,2.0,-999.0,70,-99.99,,,-99.99,748.200012,,2013-06-11 17:32:00,
2013-06-11 13:43:00,73.0,63.0,-100.00,South,180,2.0,-999.0,70,-99.99,,,-99.99,748.200012,,2013-06-11 17:43:00,
2013-06-11 13:53:00,73.0,63.0,-100.00,South,180,2.0,-999.0,70,-99.99,,,-99.99,748.200012,,2013-06-11 17:53:00,
2013-06-11 14:00:00,76.0,63.0,-100.00,SSW,202,6.0,-999.0,63,-99.99,,,-99.99,752.840027,,2013-06-11 18:00:00,
2013-06-11 14:33:00,76.0,63.0,-100.00,SSW,202,6.0,-999.0,63,-99.99,,,-99.99,752.840027,,2013-06-11 18:33:00,
2013-06-11 14:43:00,76.0,63.0,-100.00,SSW,202,6.0,-999.0,63,-99.99,,,-99.99,752.840027,,2013-06-11 18:43:00,
2013-06-11 14:52:00,76.0,63.0,-100.00,SSW,202,6.0,-999.0,63,-99.99,,,-99.99,752.840027,,2013-06-11 18:52:00,
2013-06-11 15:00:00,77.0,63.0,-100.00,South,180,9.0,-999.0,62,-99.99,,,-99.99,668.159973,,2013-06-11 19:00:00,
2013-06-11 15:33:00,77.0,63.0,-100.00,South,180,9.0,-999.0,62,-99.99,,,-99.99,668.159973,,2013-06-11 19:33:00,
2013-06-11 15:42:00,77.0,63.0,-100.00,South,180,9.0,-999.0,62,-99.99,,,-99.99,668.159973,,2013-06-11 19:42:00,
2013-06-11 15:53:00,77.0,63.0,-100.00,South,180,9.0,-999.0,62,-99.99,,,-99.99,668.159973,,2013-06-11 19:53:00,
2013-06-11 16:00:00,77.0,62.0,-100.00,SSW,202,10.0,-999.0,59,-99.99,,,-99.99,566.080017,,2013-06-11 20:00:00,
2013-06-11 16:32:00,77.0,62.0,-100.00,SSW,202,10.0,-999.0,59,-99.99,,,-99.99,566.080017,,2013-06-11 20:32:00,
2013-06-11 16:42:00,77.0,62.0,-100.00,SSW,202,10.0,-999.0,59,-99.99,,,-99.99,566.080017,,2013-06-11 20:42:00,
2013-06-11 16:52:00,77.0,62.0,-100.00,SSW,202,10.0,-999.0,59,-99.99,,,-99.99,566.080017,,2013-06-11 20:52:00,
2013-06-11 17:00:00,75.0,61.0,-100.00,SSW,202,9.0,-999.0,61,-99.99,,,-99.99,214.600006,,2013-06-11 21:00:00,
2013-06-11 17:33:00,75.0,61.0,-100.00,SSW,202,9.0,-999.0,61,-99.99,,,-99.99,214.600006,,2013-06-11 21:33:00,
2013-06-11 17:42:00,75.0,61.0,-100.00,SSW,202,9.0,-999.0,61,-99.99,,,-99.99,214.600006,,2013-06-11 21:42:00,
2013-06-11 17:53:00,75.0,61.0,-100.00,SSW,202,9.0,-999.0,61,-99.99,,,-99.99,214.600006,,2013-06-11 21:53:00,
2013-06-11 18:00:00,74.0,58.0,-100.00,SW,225,6.0,-999.0,59,-99.99,,,-99.99,299.279999,,2013-06-11 22:00:00,
2013-06-11 18:33:00,74.0,58.0,-100.00,SW,225,6.0,-999.0,59,-99.99,,,-99.99,299.279999,,2013-06-11 22:33:00,
2013-06-11 18:42:00,74.0,58.0,-100.00,SW,225,6.0,-999.0,59,-99.99,,,-99.99,299.279999,,2013-06-11 22:42:00,
2013-06-11 18:52:00,74.0,58.0,-100.00,SW,225,6.0,-999.0,59,-99.99,,,-99.99,299.279999,,2013-06-11 22:52:00,
2013-06-11 19:00:00,73.0,58.0,-100.00,SSW,202,6.0,-999.0,60,-99.99,,,-99.99,307.399994,,2013-06-11 23:00:00,
2013-06-11 19:32:00,73.0,58.0,-100.00,SSW,202,6.0,-999.0,60,-99.99,,,-99.99,307.399994,,2013-06-11 23:32:00,
2013-06-11 19:42:00,73.0,58.0,-100.00,SSW,202,6.0,-999.0,60,-99.99,,,-99.99,307.399994,,2013-06-11 23:42:00,
2013-06-11 19:52:00,73.0,58.0,-100.00,SSW,202,6.0,-999.0,60,-99.99,,,-99.99,307.399994,,2013-06-11 23:52:00,
2013-06-11 21:00:00,71.0,59.0,-100.00,SW,225,4.0,-999.0,65,-99.99,,,-99.99,39.439999,,2013-06-12 01:00:00,
2013-06-11 21:32:00,71.0,59.0,-100.00,SW,225,4.0,-999.0,65,-99.99,,,-99.99,39.439999,,2013-06-12 01:32:00,
2013-06-11 21:42:00,71.0,59.0,-100.00,SW,225,4.0,-999.0,65,-99.99,,,-99.99,39.439999,,2013-06-12 01:42:00,
2013-06-11 21:52:00,71.0,59.0,-100.00,SW,225,4.0,-999.0,65,-99.99,,,-99.99,39.439999,,2013-06-12 01:52:00,
2013-06-11 22:00:00,67.0,59.0,-100.00,West,270,1.0,-999.0,75,-99.99,,,-99.99,3.480000,,2013-06-12 02:00:00,
2013-06-11 22:32:00,67.0,59.0,-100.00,West,270,1.0,-999.0,75,-99.99,,,-99.99,3.480000,,2013-06-12 02:32:00,
2013-06-11 22:42:00,67.0,59.0,-100.00,West,270,1.0,-999.0,75,-99.99,,,-99.99,3.480000,,2013-06-12 02:42:00,
2013-06-11 22:52:00,67.0,59.0,-100.00,West,270,1.0,-999.0,75,-99.99,,,-99.99,3.480000,,2013-06-12 02:52:00,
2013-06-11 23:00:00,64.0,59.0,-100.00,WSW,247,1.0,-999.0,82,-99.99,,,-99.99,0.000000,,2013-06-12 03:00:00,
2013-06-11 23:33:00,64.0,59.0,-100.00,WSW,247,1.0,-999.0,82,-99.99,,,-99.99,0.000000,,2013-06-12 03:33:00,
2013-06-11 23:43:00,64.0,59.0,-100.00,WSW,247,1.0,-999.0,82,-99.99,,,-99.99,0.000000,,2013-06-12 03:43:00,
2013-06-11 23:53:00,64.0,59.0,-100.00,WSW,247,1.0,-999.0,82,-99.99,,,-99.99,0.000000,,2013-06-12 03:53:00,